createdAt,value
2022-08-16T00:03:04.644Z,10.00
2022-08-16T00:08:08.518Z,9.80
2022-08-16T00:13:41.844Z,10.00
2022-08-16T00:18:46.103Z,10.30
2022-08-16T00:23:50.793Z,10.00
2022-08-16T00:28:54.907Z,10.00
2022-08-16T00:33:59.287Z,10.70
2022-08-16T00:39:04.642Z,11.20
2022-08-16T00:44:11.368Z,11.40
2022-08-16T00:49:18.957Z,11.10
2022-08-16T00:54:27.631Z,10.60
2022-08-16T00:59:35.727Z,10.90
2022-08-16T01:04:38.596Z,11.20
2022-08-16T01:09:42.756Z,11.00
2022-08-16T01:14:53.291Z,11.10
2022-08-16T01:20:00.882Z,11.00
2022-08-16T01:25:11.316Z,11.20
2022-08-16T01:30:27.717Z,10.90
2022-08-16T01:35:36.394Z,11.60
2022-08-16T01:40:40.045Z,12.20
2022-08-16T01:45:46.125Z,11.40
2022-08-16T01:51:08.811Z,11.30
2022-08-16T01:56:24.322Z,11.50
2022-08-16T02:01:29.917Z,11.40
2022-08-16T02:06:37.980Z,10.70
2022-08-16T02:11:48.314Z,11.70
2022-08-16T02:16:59.079Z,11.00
2022-08-16T02:27:25.961Z,11.60
2022-08-16T02:32:50.198Z,10.40
2022-08-16T02:37:56.031Z,11.10
2022-08-16T02:42:59.255Z,11.40
2022-08-16T02:48:29.580Z,11.40
2022-08-16T02:53:26.564Z,10.80
2022-08-16T02:58:29.646Z,11.00
2022-08-16T03:04:30.061Z,11.30
2022-08-16T03:08:57.935Z,11.60
2022-08-16T03:14:07.292Z,10.80
2022-08-16T03:19:11.554Z,10.50
2022-08-16T03:24:28.551Z,10.20
2022-08-16T03:29:33.927Z,10.40
2022-08-16T03:34:37.058Z,11.20
2022-08-16T03:39:42.649Z,10.90
2022-08-16T03:44:49.573Z,10.90
2022-08-16T03:49:53.641Z,11.90
2022-08-16T03:54:59.273Z,11.60
2022-08-16T04:00:40.947Z,11.60
2022-08-16T04:05:48.558Z,11.30
2022-08-16T04:15:59.348Z,10.60
2022-08-16T04:21:04.187Z,10.80
2022-08-16T04:26:07.769Z,12.10
2022-08-16T04:31:20.470Z,10.70
2022-08-16T04:36:23.585Z,11.50
2022-08-16T04:41:32.593Z,11.80
2022-08-16T04:47:00.700Z,11.60
2022-08-16T04:52:05.360Z,11.80
2022-08-16T04:57:30.227Z,11.50
2022-08-16T05:02:42.454Z,11.60
2022-08-16T05:07:59.477Z,11.30
2022-08-16T05:13:03.356Z,11.30
2022-08-16T05:18:06.480Z,12.20
2022-08-16T05:23:19.422Z,12.60
2022-08-16T05:28:30.940Z,11.70
2022-08-16T05:33:42.134Z,11.60
2022-08-16T05:38:46.028Z,11.20
2022-08-16T05:43:49.315Z,11.10
2022-08-16T05:48:55.208Z,10.50
2022-08-16T05:54:03.466Z,11.60
2022-08-16T05:59:07.534Z,12.90
2022-08-16T06:04:34.787Z,11.40
2022-08-16T06:09:37.210Z,11.60
2022-08-16T06:14:52.890Z,10.80
2022-08-16T06:19:59.127Z,11.70
2022-08-16T06:25:02.429Z,10.80
2022-08-16T06:30:12.457Z,11.30
2022-08-16T06:35:24.232Z,11.00
2022-08-16T06:40:33.493Z,10.90
2022-08-16T06:45:43.523Z,10.90
2022-08-16T06:50:52.505Z,10.60
2022-08-16T07:01:10.001Z,12.00
2022-08-16T07:06:21.773Z,11.90
2022-08-16T07:11:45.542Z,11.20
2022-08-16T07:16:52.386Z,10.70
2022-08-16T07:21:59.915Z,10.70
2022-08-16T07:27:08.654Z,10.90
2022-08-16T07:32:15.814Z,10.10
2022-08-16T07:37:23.121Z,12.00
2022-08-16T07:42:34.875Z,11.20
2022-08-16T07:47:38.465Z,11.10
2022-08-16T07:52:45.576Z,10.90
2022-08-16T07:57:59.829Z,10.90
2022-08-16T08:03:02.671Z,10.80
2022-08-16T08:08:11.841Z,10.70
2022-08-16T08:13:42.731Z,10.90
2022-08-16T08:18:50.479Z,11.30
2022-08-16T08:24:00.249Z,9.90
2022-08-16T08:29:07.973Z,11.10
2022-08-16T08:34:13.776Z,11.10
2022-08-16T08:39:22.576Z,10.80
2022-08-16T08:44:28.815Z,10.00
2022-08-16T08:49:46.846Z,10.70
2022-08-16T09:00:03.401Z,10.40
2022-08-16T09:10:22.037Z,9.30
2022-08-16T09:15:32.997Z,8.80
2022-08-16T09:20:59.694Z,8.00
2022-08-16T09:31:05.271Z,7.80
2022-08-16T09:36:11.996Z,8.00
2022-08-16T09:41:33.788Z,8.20
2022-08-16T09:46:48.955Z,8.30
2022-08-16T09:51:55.500Z,7.10
2022-08-16T09:57:01.760Z,7.50
2022-08-16T10:02:25.997Z,7.00
2022-08-16T10:07:44.504Z,7.20
2022-08-16T10:13:07.149Z,7.10
2022-08-16T10:18:56.505Z,6.30
2022-08-16T10:23:36.707Z,6.40
2022-08-16T10:28:42.343Z,6.40
2022-08-16T10:33:46.590Z,5.60
2022-08-16T10:38:52.139Z,6.20
2022-08-16T10:48:58.298Z,6.20
2022-08-16T10:54:04.820Z,5.80
2022-08-16T11:15:24.371Z,6.00
2022-08-16T11:20:49.007Z,6.10
2022-08-16T11:26:10.426Z,6.10
2022-08-16T11:31:08.901Z,6.60
2022-08-16T11:36:27.704Z,6.30
2022-08-16T11:41:34.376Z,5.60
2022-08-16T11:46:45.242Z,5.60
2022-08-16T11:51:50.166Z,5.30
2022-08-16T11:56:57.511Z,5.20
2022-08-16T12:02:30.622Z,5.30
2022-08-16T12:07:24.094Z,4.50
2022-08-16T12:12:28.426Z,5.70
2022-08-16T12:17:34.907Z,5.00
2022-08-16T12:22:40.239Z,5.90
2022-08-16T12:27:49.748Z,5.30
2022-08-16T12:32:54.718Z,5.40
2022-08-16T12:38:38.231Z,5.50
2022-08-16T12:43:26.141Z,6.30
2022-08-16T12:48:55.407Z,5.30
2022-08-16T12:54:01.692Z,5.00
2022-08-16T12:59:12.197Z,5.10
2022-08-16T13:04:24.928Z,5.30
2022-08-16T13:09:30.766Z,5.20
2022-08-16T13:14:38.007Z,5.20
2022-08-16T13:20:07.299Z,5.40
2022-08-16T13:25:06.703Z,7.00
2022-08-16T13:30:35.464Z,6.20
2022-08-16T13:35:36.878Z,6.20
2022-08-16T13:40:50.183Z,6.10
2022-08-16T13:45:57.538Z,6.60
2022-08-16T13:51:04.344Z,6.00
2022-08-16T13:56:07.619Z,6.80
2022-08-16T14:01:13.915Z,5.80
2022-08-16T14:06:18.727Z,6.20
2022-08-16T14:11:21.803Z,6.20
2022-08-16T14:16:33.629Z,6.20
2022-08-16T14:21:37.522Z,6.60
2022-08-16T14:26:43.035Z,6.60
2022-08-16T14:31:46.201Z,6.60
2022-08-16T14:36:53.070Z,6.50
2022-08-16T14:42:11.174Z,6.30
2022-08-16T14:47:17.022Z,6.30
2022-08-16T14:52:52.103Z,6.20
2022-08-16T14:57:46.142Z,6.00
2022-08-16T15:07:57.404Z,5.60
2022-08-16T15:13:01.388Z,5.20
2022-08-16T15:18:06.343Z,5.50
2022-08-16T15:23:15.482Z,5.00
2022-08-16T15:28:30.583Z,5.10
2022-08-16T15:33:42.691Z,4.60
2022-08-16T15:39:02.359Z,4.80
2022-08-16T15:44:14.817Z,5.10
2022-08-16T15:49:21.542Z,5.00
2022-08-16T15:54:31.024Z,5.50
2022-08-16T15:59:49.208Z,5.80
2022-08-16T16:04:56.103Z,5.30
2022-08-16T16:10:01.240Z,5.30
2022-08-16T16:15:05.093Z,4.50
2022-08-16T16:20:14.573Z,5.40
2022-08-16T16:25:19.505Z,5.20
2022-08-16T16:35:47.151Z,4.70
2022-08-16T16:41:04.931Z,5.50
2022-08-16T16:46:41.383Z,4.70
2022-08-16T16:51:40.961Z,4.50
2022-08-16T16:56:49.688Z,5.00
2022-08-16T17:01:59.585Z,5.70
2022-08-16T17:07:18.024Z,5.60
2022-08-16T17:12:46.890Z,5.80
2022-08-16T17:17:59.096Z,6.20
2022-08-16T17:23:06.017Z,5.10
2022-08-16T17:28:58.962Z,5.20
2022-08-16T17:33:37.334Z,5.20
2022-08-16T17:39:00.268Z,6.20
2022-08-16T17:44:05.731Z,6.20
2022-08-16T17:49:08.964Z,6.60
2022-08-16T17:54:20.624Z,6.40
2022-08-16T17:59:35.512Z,5.90
2022-08-16T18:04:49.876Z,5.70
2022-08-16T18:09:53.292Z,6.10
2022-08-16T18:15:00.173Z,5.40
2022-08-16T18:20:29.552Z,6.10
2022-08-16T18:25:33.015Z,6.60
2022-08-16T18:30:36.074Z,6.10
2022-08-16T18:35:39.490Z,6.20
2022-08-16T18:40:43.810Z,6.30
2022-08-16T18:45:50.420Z,6.40
2022-08-16T18:51:03.167Z,7.00
2022-08-16T18:56:10.547Z,6.40
2022-08-16T19:01:13.941Z,6.30
2022-08-16T19:06:18.386Z,7.30
2022-08-16T19:11:23.649Z,6.90
2022-08-16T19:16:26.668Z,7.80
2022-08-16T19:21:29.550Z,7.40
2022-08-16T19:26:32.642Z,7.30
2022-08-16T19:31:41.398Z,8.10
2022-08-16T19:36:45.128Z,7.60
2022-08-16T19:41:52.098Z,7.70
2022-08-16T19:46:57.918Z,8.30
2022-08-16T19:52:11.042Z,9.70
2022-08-16T19:57:19.813Z,10.70
2022-08-16T20:02:36.047Z,9.50
2022-08-16T20:07:39.690Z,9.60
2022-08-16T20:13:01.818Z,10.20
2022-08-16T20:18:12.686Z,10.60
2022-08-16T20:23:28.141Z,11.70
2022-08-16T20:28:52.269Z,11.70
2022-08-16T20:33:57.174Z,12.10
2022-08-16T20:39:03.062Z,11.60
2022-08-16T20:44:06.261Z,11.50
2022-08-16T20:49:13.180Z,10.90
2022-08-16T20:54:16.119Z,12.60
2022-08-16T20:59:19.220Z,10.80
2022-08-16T21:04:25.643Z,10.90
2022-08-16T21:09:32.658Z,10.50
2022-08-16T21:14:35.844Z,9.90
2022-08-16T21:19:39.831Z,10.20
2022-08-16T21:24:46.264Z,8.90
2022-08-16T21:29:49.336Z,9.80
2022-08-16T21:34:52.554Z,9.90
2022-08-16T21:39:55.553Z,9.00
2022-08-16T21:44:58.574Z,8.50
2022-08-16T21:50:01.552Z,8.00
2022-08-16T21:55:06.769Z,7.40
2022-08-16T22:00:14.470Z,8.20
2022-08-16T22:05:17.414Z,8.20
2022-08-16T22:11:07.034Z,8.60
2022-08-16T22:15:45.879Z,9.40
2022-08-16T22:20:50.526Z,9.40
2022-08-16T22:25:55.593Z,8.80
2022-08-16T22:30:58.559Z,8.90
2022-08-16T22:36:04.744Z,8.80
2022-08-16T22:41:07.687Z,9.90
2022-08-16T22:46:10.793Z,9.70
2022-08-16T22:51:13.946Z,9.70
2022-08-16T22:56:17.756Z,9.80
2022-08-16T23:01:24.585Z,10.40
2022-08-16T23:06:27.573Z,10.00
2022-08-16T23:11:31.380Z,9.80
2022-08-16T23:16:35.224Z,10.60
2022-08-16T23:21:45.219Z,11.00
2022-08-16T23:26:49.618Z,10.30
2022-08-16T23:31:59.964Z,10.30
2022-08-16T23:37:03.028Z,10.80
2022-08-16T23:42:15.595Z,11.20
2022-08-16T23:47:39.240Z,10.40
2022-08-16T23:52:55.917Z,10.40
2022-08-16T23:57:59.592Z,10.20
